sensor_id;sensor_type;location;lat;lon;timestamp;P1;durP1;ratioP1;P2;durP2;ratioP2
48403;SDS011;34202;52.536;6.042;2023-05-15T00:04:38;29.20;;;21.60;;
48403;SDS011;34202;52.536;6.042;2023-05-15T00:09:38;35.90;;;25.60;;
48403;SDS011;34202;52.536;6.042;2023-05-15T00:14:39;31.60;;;25.10;;
48403;SDS011;34202;52.536;6.042;2023-05-15T00:19:39;29.10;;;23.00;;
48403;SDS011;34202;52.536;6.042;2023-05-15T00:24:40;30.20;;;21.00;;
48403;SDS011;34202;52.536;6.042;2023-05-15T00:29:40;32.90;;;23.60;;
48403;SDS011;34202;52.536;6.042;2023-05-15T00:34:41;27.60;;;22.80;;
48403;SDS011;34202;52.536;6.042;2023-05-15T00:39:41;31.60;;;22.50;;
48403;SDS011;34202;52.536;6.042;2023-05-15T00:44:42;27.50;;;22.00;;
48403;SDS011;34202;52.536;6.042;2023-05-15T00:49:44;29.40;;;22.30;;
48403;SDS011;34202;52.536;6.042;2023-05-15T00:54:46;33.70;;;22.70;;
48403;SDS011;34202;52.536;6.042;2023-05-15T00:59:46;25.80;;;20.10;;
48403;SDS011;34202;52.536;6.042;2023-05-15T01:04:48;30.90;;;23.50;;
48403;SDS011;34202;52.536;6.042;2023-05-15T01:09:49;26.40;;;23.30;;
48403;SDS011;34202;52.536;6.042;2023-05-15T01:14:52;25.60;;;20.60;;
48403;SDS011;34202;52.536;6.042;2023-05-15T01:19:53;29.80;;;24.50;;
48403;SDS011;34202;52.536;6.042;2023-05-15T01:30:26;26.60;;;21.80;;
48403;SDS011;34202;52.536;6.042;2023-05-15T01:41:01;33.00;;;23.70;;
48403;SDS011;34202;52.536;6.042;2023-05-15T01:46:05;31.80;;;24.00;;
48403;SDS011;34202;52.536;6.042;2023-05-15T01:51:07;31.10;;;23.10;;
48403;SDS011;34202;52.536;6.042;2023-05-15T01:56:11;31.70;;;23.70;;
48403;SDS011;34202;52.536;6.042;2023-05-15T02:01:13;28.20;;;22.00;;
48403;SDS011;34202;52.536;6.042;2023-05-15T02:06:14;31.40;;;24.30;;
48403;SDS011;34202;52.536;6.042;2023-05-15T02:11:15;36.00;;;25.50;;
48403;SDS011;34202;52.536;6.042;2023-05-15T02:16:16;31.30;;;24.30;;
48403;SDS011;34202;52.536;6.042;2023-05-15T02:21:16;30.50;;;22.50;;
48403;SDS011;34202;52.536;6.042;2023-05-15T02:26:30;29.20;;;22.70;;
48403;SDS011;34202;52.536;6.042;2023-05-15T02:31:51;32.70;;;23.40;;
48403;SDS011;34202;52.536;6.042;2023-05-15T02:37:13;30.20;;;25.30;;
48403;SDS011;34202;52.536;6.042;2023-05-15T02:42:20;30.00;;;24.60;;
48403;SDS011;34202;52.536;6.042;2023-05-15T02:47:21;33.40;;;25.50;;
48403;SDS011;34202;52.536;6.042;2023-05-15T02:52:23;28.40;;;20.80;;
48403;SDS011;34202;52.536;6.042;2023-05-15T02:57:23;30.50;;;23.30;;
48403;SDS011;34202;52.536;6.042;2023-05-15T03:02:24;31.30;;;20.10;;
48403;SDS011;34202;52.536;6.042;2023-05-15T03:07:24;28.10;;;21.10;;
48403;SDS011;34202;52.536;6.042;2023-05-15T03:12:26;28.50;;;23.30;;
48403;SDS011;34202;52.536;6.042;2023-05-15T03:17:26;28.10;;;20.90;;
48403;SDS011;34202;52.536;6.042;2023-05-15T03:22:26;33.20;;;23.60;;
48403;SDS011;34202;52.536;6.042;2023-05-15T03:27:27;32.80;;;23.50;;
48403;SDS011;34202;52.536;6.042;2023-05-15T03:32:27;39.50;;;25.30;;
48403;SDS011;34202;52.536;6.042;2023-05-15T03:37:27;39.80;;;24.00;;
48403;SDS011;34202;52.536;6.042;2023-05-15T03:42:28;33.40;;;23.10;;
48403;SDS011;34202;52.536;6.042;2023-05-15T03:47:28;36.20;;;25.50;;
48403;SDS011;34202;52.536;6.042;2023-05-15T03:52:29;37.10;;;25.10;;
48403;SDS011;34202;52.536;6.042;2023-05-15T03:57:29;34.50;;;25.00;;
48403;SDS011;34202;52.536;6.042;2023-05-15T04:02:31;38.50;;;25.80;;
48403;SDS011;34202;52.536;6.042;2023-05-15T04:07:31;29.50;;;21.90;;
48403;SDS011;34202;52.536;6.042;2023-05-15T04:12:33;31.40;;;19.10;;
48403;SDS011;34202;52.536;6.042;2023-05-15T04:17:34;38.40;;;25.50;;
48403;SDS011;34202;52.536;6.042;2023-05-15T04:22:35;37.00;;;23.60;;
48403;SDS011;34202;52.536;6.042;2023-05-15T04:27:36;36.20;;;24.00;;
48403;SDS011;34202;52.536;6.042;2023-05-15T04:32:37;36.10;;;22.30;;
48403;SDS011;34202;52.536;6.042;2023-05-15T04:37:38;31.00;;;24.20;;
48403;SDS011;34202;52.536;6.042;2023-05-15T04:42:40;28.50;;;21.10;;
48403;SDS011;34202;52.536;6.042;2023-05-15T04:47:41;29.60;;;21.30;;
48403;SDS011;34202;52.536;6.042;2023-05-15T04:52:41;33.40;;;23.40;;
48403;SDS011;34202;52.536;6.042;2023-05-15T04:57:45;26.20;;;19.80;;
48403;SDS011;34202;52.536;6.042;2023-05-15T05:02:46;29.20;;;22.20;;
48403;SDS011;34202;52.536;6.042;2023-05-15T05:07:46;32.10;;;21.00;;
48403;SDS011;34202;52.536;6.042;2023-05-15T05:12:46;30.80;;;23.50;;
48403;SDS011;34202;52.536;6.042;2023-05-15T05:17:47;36.90;;;24.60;;
48403;SDS011;34202;52.536;6.042;2023-05-15T05:22:47;32.40;;;22.80;;
48403;SDS011;34202;52.536;6.042;2023-05-15T05:27:47;33.80;;;22.00;;
48403;SDS011;34202;52.536;6.042;2023-05-15T05:32:48;33.00;;;25.40;;
48403;SDS011;34202;52.536;6.042;2023-05-15T05:37:48;32.20;;;23.70;;
48403;SDS011;34202;52.536;6.042;2023-05-15T05:42:48;31.60;;;24.60;;
48403;SDS011;34202;52.536;6.042;2023-05-15T05:47:49;36.50;;;24.20;;
48403;SDS011;34202;52.536;6.042;2023-05-15T05:52:50;33.30;;;23.70;;
48403;SDS011;34202;52.536;6.042;2023-05-15T05:57:50;34.00;;;22.80;;
48403;SDS011;34202;52.536;6.042;2023-05-15T06:02:54;30.00;;;21.60;;
48403;SDS011;34202;52.536;6.042;2023-05-15T06:07:56;32.80;;;23.90;;
48403;SDS011;34202;52.536;6.042;2023-05-15T06:12:57;25.80;;;19.00;;
48403;SDS011;34202;52.536;6.042;2023-05-15T06:17:57;27.40;;;20.00;;
48403;SDS011;34202;52.536;6.042;2023-05-15T06:22:57;24.40;;;19.50;;
48403;SDS011;34202;52.536;6.042;2023-05-15T06:27:58;27.30;;;18.60;;
48403;SDS011;34202;52.536;6.042;2023-05-15T06:32:58;24.90;;;19.00;;
48403;SDS011;34202;52.536;6.042;2023-05-15T06:37:59;25.90;;;18.50;;
48403;SDS011;34202;52.536;6.042;2023-05-15T06:43:01;22.30;;;19.00;;
48403;SDS011;34202;52.536;6.042;2023-05-15T06:48:01;19.30;;;16.00;;
48403;SDS011;34202;52.536;6.042;2023-05-15T06:53:01;25.70;;;19.30;;
48403;SDS011;34202;52.536;6.042;2023-05-15T06:58:03;23.70;;;19.20;;
48403;SDS011;34202;52.536;6.042;2023-05-15T07:03:03;22.80;;;19.30;;
48403;SDS011;34202;52.536;6.042;2023-05-15T07:08:04;25.30;;;19.40;;
48403;SDS011;34202;52.536;6.042;2023-05-15T07:13:04;25.10;;;20.10;;
48403;SDS011;34202;52.536;6.042;2023-05-15T07:18:05;21.10;;;17.70;;
48403;SDS011;34202;52.536;6.042;2023-05-15T07:23:05;25.20;;;18.90;;
48403;SDS011;34202;52.536;6.042;2023-05-15T07:28:06;19.40;;;16.50;;
48403;SDS011;34202;52.536;6.042;2023-05-15T07:33:06;17.90;;;15.20;;
48403;SDS011;34202;52.536;6.042;2023-05-15T07:38:06;20.90;;;16.40;;
48403;SDS011;34202;52.536;6.042;2023-05-15T07:43:07;22.20;;;18.30;;
48403;SDS011;34202;52.536;6.042;2023-05-15T07:48:17;29.60;;;18.30;;
48403;SDS011;34202;52.536;6.042;2023-05-15T07:53:19;21.50;;;19.10;;
48403;SDS011;34202;52.536;6.042;2023-05-15T07:58:19;21.50;;;17.60;;
48403;SDS011;34202;52.536;6.042;2023-05-15T08:03:22;18.20;;;16.40;;
48403;SDS011;34202;52.536;6.042;2023-05-15T08:08:23;24.20;;;17.50;;
48403;SDS011;34202;52.536;6.042;2023-05-15T08:13:23;19.70;;;17.60;;
48403;SDS011;34202;52.536;6.042;2023-05-15T08:18:23;18.80;;;16.80;;
48403;SDS011;34202;52.536;6.042;2023-05-15T08:23:24;22.70;;;18.70;;
48403;SDS011;34202;52.536;6.042;2023-05-15T08:28:24;18.00;;;16.20;;
48403;SDS011;34202;52.536;6.042;2023-05-15T08:33:25;21.60;;;18.20;;
48403;SDS011;34202;52.536;6.042;2023-05-15T08:38:25;20.30;;;18.20;;
48403;SDS011;34202;52.536;6.042;2023-05-15T08:43:25;19.80;;;17.70;;
48403;SDS011;34202;52.536;6.042;2023-05-15T08:48:28;23.50;;;19.90;;
48403;SDS011;34202;52.536;6.042;2023-05-15T08:53:29;19.90;;;16.70;;
48403;SDS011;34202;52.536;6.042;2023-05-15T08:58:31;19.90;;;17.60;;
48403;SDS011;34202;52.536;6.042;2023-05-15T09:03:32;21.00;;;18.30;;
48403;SDS011;34202;52.536;6.042;2023-05-15T09:08:32;22.00;;;18.50;;
48403;SDS011;34202;52.536;6.042;2023-05-15T09:13:34;21.80;;;17.80;;
48403;SDS011;34202;52.536;6.042;2023-05-15T09:18:35;21.40;;;19.10;;
48403;SDS011;34202;52.536;6.042;2023-05-15T09:23:37;18.80;;;16.40;;
48403;SDS011;34202;52.536;6.042;2023-05-15T09:28:38;20.70;;;15.90;;
48403;SDS011;34202;52.536;6.042;2023-05-15T09:33:39;18.60;;;16.20;;
48403;SDS011;34202;52.536;6.042;2023-05-15T09:38:41;14.30;;;12.40;;
48403;SDS011;34202;52.536;6.042;2023-05-15T09:43:42;16.20;;;14.50;;
48403;SDS011;34202;52.536;6.042;2023-05-15T09:48:42;20.40;;;13.60;;
48403;SDS011;34202;52.536;6.042;2023-05-15T09:54:01;14.80;;;12.30;;
48403;SDS011;34202;52.536;6.042;2023-05-15T09:59:02;15.00;;;13.40;;
48403;SDS011;34202;52.536;6.042;2023-05-15T10:04:05;15.20;;;11.90;;
48403;SDS011;34202;52.536;6.042;2023-05-15T10:09:05;14.20;;;12.70;;
48403;SDS011;34202;52.536;6.042;2023-05-15T10:14:07;10.50;;;9.50;;
48403;SDS011;34202;52.536;6.042;2023-05-15T10:19:10;12.30;;;10.80;;
48403;SDS011;34202;52.536;6.042;2023-05-15T10:24:11;16.00;;;10.80;;
48403;SDS011;34202;52.536;6.042;2023-05-15T10:29:13;10.50;;;8.70;;
48403;SDS011;34202;52.536;6.042;2023-05-15T10:34:17;9.70;;;7.50;;
48403;SDS011;34202;52.536;6.042;2023-05-15T10:39:17;7.70;;;7.00;;
48403;SDS011;34202;52.536;6.042;2023-05-15T10:44:19;7.00;;;5.90;;
48403;SDS011;34202;52.536;6.042;2023-05-15T10:49:22;7.00;;;6.10;;
48403;SDS011;34202;52.536;6.042;2023-05-15T10:54:22;6.30;;;5.60;;
48403;SDS011;34202;52.536;6.042;2023-05-15T10:59:29;11.40;;;7.40;;
48403;SDS011;34202;52.536;6.042;2023-05-15T11:04:31;7.70;;;6.50;;
48403;SDS011;34202;52.536;6.042;2023-05-15T11:09:32;7.50;;;6.60;;
48403;SDS011;34202;52.536;6.042;2023-05-15T11:14:35;10.40;;;9.30;;
48403;SDS011;34202;52.536;6.042;2023-05-15T11:19:36;12.50;;;8.70;;
48403;SDS011;34202;52.536;6.042;2023-05-15T11:25:09;12.80;;;10.20;;
48403;SDS011;34202;52.536;6.042;2023-05-15T11:30:14;9.60;;;8.60;;
48403;SDS011;34202;52.536;6.042;2023-05-15T11:35:18;9.00;;;8.10;;
48403;SDS011;34202;52.536;6.042;2023-05-15T11:40:49;8.10;;;7.20;;
48403;SDS011;34202;52.536;6.042;2023-05-15T11:51:02;10.50;;;9.10;;
48403;SDS011;34202;52.536;6.042;2023-05-15T11:56:04;11.10;;;9.60;;
48403;SDS011;34202;52.536;6.042;2023-05-15T12:01:05;8.60;;;7.80;;
48403;SDS011;34202;52.536;6.042;2023-05-15T12:06:10;12.10;;;10.90;;
48403;SDS011;34202;52.536;6.042;2023-05-15T12:11:11;13.10;;;11.70;;
48403;SDS011;34202;52.536;6.042;2023-05-15T12:16:12;13.90;;;11.30;;
48403;SDS011;34202;52.536;6.042;2023-05-15T12:21:12;16.60;;;13.70;;
48403;SDS011;34202;52.536;6.042;2023-05-15T12:26:13;16.30;;;13.10;;
48403;SDS011;34202;52.536;6.042;2023-05-15T12:31:13;11.90;;;9.50;;
48403;SDS011;34202;52.536;6.042;2023-05-15T12:36:14;15.50;;;12.00;;
48403;SDS011;34202;52.536;6.042;2023-05-15T12:41:19;17.40;;;13.70;;
48403;SDS011;34202;52.536;6.042;2023-05-15T12:46:29;14.00;;;12.50;;
48403;SDS011;34202;52.536;6.042;2023-05-15T12:51:33;17.20;;;14.20;;
48403;SDS011;34202;52.536;6.042;2023-05-15T12:56:33;15.70;;;13.40;;
48403;SDS011;34202;52.536;6.042;2023-05-15T13:01:33;16.40;;;14.30;;
48403;SDS011;34202;52.536;6.042;2023-05-15T13:06:36;18.30;;;15.50;;
48403;SDS011;34202;52.536;6.042;2023-05-15T13:11:41;19.00;;;16.10;;
48403;SDS011;34202;52.536;6.042;2023-05-15T13:16:44;19.40;;;16.70;;
48403;SDS011;34202;52.536;6.042;2023-05-15T13:21:45;20.20;;;15.10;;
48403;SDS011;34202;52.536;6.042;2023-05-15T13:26:46;18.80;;;16.00;;
48403;SDS011;34202;52.536;6.042;2023-05-15T13:31:46;17.10;;;15.30;;
48403;SDS011;34202;52.536;6.042;2023-05-15T13:36:46;17.40;;;15.50;;
48403;SDS011;34202;52.536;6.042;2023-05-15T13:41:47;20.90;;;17.30;;
48403;SDS011;34202;52.536;6.042;2023-05-15T13:46:47;19.40;;;17.30;;
48403;SDS011;34202;52.536;6.042;2023-05-15T13:51:47;21.00;;;17.70;;
48403;SDS011;34202;52.536;6.042;2023-05-15T13:56:48;19.80;;;16.80;;
48403;SDS011;34202;52.536;6.042;2023-05-15T14:01:48;20.60;;;18.30;;
48403;SDS011;34202;52.536;6.042;2023-05-15T14:06:48;17.00;;;15.30;;
48403;SDS011;34202;52.536;6.042;2023-05-15T14:11:50;21.80;;;16.90;;
48403;SDS011;34202;52.536;6.042;2023-05-15T14:16:50;21.20;;;17.40;;
48403;SDS011;34202;52.536;6.042;2023-05-15T14:21:51;17.80;;;14.60;;
48403;SDS011;34202;52.536;6.042;2023-05-15T14:26:51;15.80;;;14.10;;
48403;SDS011;34202;52.536;6.042;2023-05-15T14:31:51;16.80;;;14.70;;
48403;SDS011;34202;52.536;6.042;2023-05-15T14:36:52;16.10;;;14.50;;
48403;SDS011;34202;52.536;6.042;2023-05-15T14:41:52;19.80;;;17.00;;
48403;SDS011;34202;52.536;6.042;2023-05-15T14:47:05;18.40;;;16.10;;
48403;SDS011;34202;52.536;6.042;2023-05-15T14:52:08;18.80;;;16.10;;
48403;SDS011;34202;52.536;6.042;2023-05-15T14:57:09;13.70;;;12.00;;
48403;SDS011;34202;52.536;6.042;2023-05-15T15:02:09;16.40;;;14.70;;
48403;SDS011;34202;52.536;6.042;2023-05-15T15:07:10;15.40;;;13.50;;
48403;SDS011;34202;52.536;6.042;2023-05-15T15:12:11;13.00;;;11.70;;
48403;SDS011;34202;52.536;6.042;2023-05-15T15:17:11;15.00;;;12.90;;
48403;SDS011;34202;52.536;6.042;2023-05-15T15:22:11;16.20;;;13.80;;
48403;SDS011;34202;52.536;6.042;2023-05-15T15:27:12;18.70;;;13.10;;
48403;SDS011;34202;52.536;6.042;2023-05-15T15:32:12;13.10;;;10.90;;
48403;SDS011;34202;52.536;6.042;2023-05-15T15:37:12;14.30;;;10.40;;
48403;SDS011;34202;52.536;6.042;2023-05-15T15:42:13;13.60;;;11.60;;
48403;SDS011;34202;52.536;6.042;2023-05-15T15:47:13;15.90;;;13.00;;
48403;SDS011;34202;52.536;6.042;2023-05-15T15:52:14;16.30;;;12.80;;
48403;SDS011;34202;52.536;6.042;2023-05-15T15:57:15;14.60;;;13.00;;
48403;SDS011;34202;52.536;6.042;2023-05-15T16:02:16;17.80;;;14.90;;
48403;SDS011;34202;52.536;6.042;2023-05-15T16:07:16;20.80;;;16.10;;
48403;SDS011;34202;52.536;6.042;2023-05-15T16:12:17;18.30;;;13.60;;
48403;SDS011;34202;52.536;6.042;2023-05-15T16:17:17;20.70;;;14.40;;
48403;SDS011;34202;52.536;6.042;2023-05-15T16:22:17;17.80;;;13.70;;
48403;SDS011;34202;52.536;6.042;2023-05-15T16:27:18;13.30;;;10.90;;
48403;SDS011;34202;52.536;6.042;2023-05-15T16:32:18;16.20;;;12.80;;
48403;SDS011;34202;52.536;6.042;2023-05-15T16:37:20;16.10;;;13.80;;
48403;SDS011;34202;52.536;6.042;2023-05-15T16:42:20;17.30;;;13.60;;
48403;SDS011;34202;52.536;6.042;2023-05-15T16:47:21;16.20;;;13.40;;
48403;SDS011;34202;52.536;6.042;2023-05-15T16:52:21;19.40;;;14.20;;
48403;SDS011;34202;52.536;6.042;2023-05-15T16:57:21;16.90;;;13.30;;
48403;SDS011;34202;52.536;6.042;2023-05-15T17:02:22;18.90;;;12.70;;
48403;SDS011;34202;52.536;6.042;2023-05-15T17:07:22;17.70;;;12.10;;
48403;SDS011;34202;52.536;6.042;2023-05-15T17:12:22;14.50;;;10.10;;
48403;SDS011;34202;52.536;6.042;2023-05-15T17:17:23;17.10;;;11.10;;
48403;SDS011;34202;52.536;6.042;2023-05-15T17:22:24;20.60;;;13.40;;
48403;SDS011;34202;52.536;6.042;2023-05-15T17:27:25;16.60;;;12.40;;
48403;SDS011;34202;52.536;6.042;2023-05-15T17:32:25;17.90;;;14.70;;
48403;SDS011;34202;52.536;6.042;2023-05-15T17:37:26;17.90;;;13.70;;
48403;SDS011;34202;52.536;6.042;2023-05-15T17:42:26;20.30;;;15.10;;
48403;SDS011;34202;52.536;6.042;2023-05-15T17:47:27;17.70;;;13.50;;
48403;SDS011;34202;52.536;6.042;2023-05-15T17:52:27;20.10;;;14.10;;
48403;SDS011;34202;52.536;6.042;2023-05-15T17:57:28;20.10;;;14.90;;
48403;SDS011;34202;52.536;6.042;2023-05-15T18:02:28;18.80;;;14.20;;
48403;SDS011;34202;52.536;6.042;2023-05-15T18:07:28;20.40;;;14.90;;
48403;SDS011;34202;52.536;6.042;2023-05-15T18:12:29;23.70;;;15.90;;
48403;SDS011;34202;52.536;6.042;2023-05-15T18:17:30;22.70;;;17.40;;
48403;SDS011;34202;52.536;6.042;2023-05-15T18:22:30;25.50;;;18.30;;
48403;SDS011;34202;52.536;6.042;2023-05-15T18:27:30;25.90;;;17.90;;
48403;SDS011;34202;52.536;6.042;2023-05-15T18:32:31;23.80;;;17.60;;
48403;SDS011;34202;52.536;6.042;2023-05-15T18:37:31;24.00;;;16.90;;
48403;SDS011;34202;52.536;6.042;2023-05-15T18:42:32;22.00;;;14.50;;
48403;SDS011;34202;52.536;6.042;2023-05-15T18:47:32;18.40;;;12.40;;
48403;SDS011;34202;52.536;6.042;2023-05-15T18:52:33;15.80;;;11.90;;
48403;SDS011;34202;52.536;6.042;2023-05-15T18:57:33;15.00;;;11.50;;
48403;SDS011;34202;52.536;6.042;2023-05-15T19:02:36;19.50;;;13.40;;
48403;SDS011;34202;52.536;6.042;2023-05-15T19:07:39;17.10;;;12.60;;
48403;SDS011;34202;52.536;6.042;2023-05-15T19:12:40;15.50;;;11.80;;
48403;SDS011;34202;52.536;6.042;2023-05-15T19:17:43;23.80;;;14.40;;
48403;SDS011;34202;52.536;6.042;2023-05-15T19:22:44;15.80;;;12.60;;
48403;SDS011;34202;52.536;6.042;2023-05-15T19:27:45;11.00;;;6.90;;
48403;SDS011;34202;52.536;6.042;2023-05-15T19:32:45;7.00;;;4.40;;
48403;SDS011;34202;52.536;6.042;2023-05-15T19:37:46;6.40;;;4.00;;
48403;SDS011;34202;52.536;6.042;2023-05-15T19:42:46;6.10;;;3.70;;
48403;SDS011;34202;52.536;6.042;2023-05-15T19:47:47;4.60;;;2.40;;
48403;SDS011;34202;52.536;6.042;2023-05-15T19:52:47;2.90;;;1.80;;
48403;SDS011;34202;52.536;6.042;2023-05-15T19:57:47;2.90;;;1.70;;
48403;SDS011;34202;52.536;6.042;2023-05-15T20:02:48;6.70;;;0.90;;
48403;SDS011;34202;52.536;6.042;2023-05-15T20:07:49;2.50;;;0.90;;
48403;SDS011;34202;52.536;6.042;2023-05-15T20:12:49;5.30;;;1.60;;
48403;SDS011;34202;52.536;6.042;2023-05-15T20:17:50;13.00;;;1.80;;
48403;SDS011;34202;52.536;6.042;2023-05-15T20:22:52;5.10;;;1.90;;
48403;SDS011;34202;52.536;6.042;2023-05-15T20:27:53;8.00;;;1.60;;
48403;SDS011;34202;52.536;6.042;2023-05-15T20:32:55;6.60;;;1.40;;
48403;SDS011;34202;52.536;6.042;2023-05-15T20:37:56;7.10;;;1.90;;
48403;SDS011;34202;52.536;6.042;2023-05-15T20:42:57;5.50;;;1.60;;
48403;SDS011;34202;52.536;6.042;2023-05-15T20:47:58;9.70;;;1.70;;
48403;SDS011;34202;52.536;6.042;2023-05-15T20:52:58;13.60;;;2.40;;
48403;SDS011;34202;52.536;6.042;2023-05-15T20:57:59;13.80;;;3.40;;
48403;SDS011;34202;52.536;6.042;2023-05-15T21:02:59;12.70;;;2.70;;
48403;SDS011;34202;52.536;6.042;2023-05-15T21:08:00;9.20;;;2.10;;
48403;SDS011;34202;52.536;6.042;2023-05-15T21:13:01;10.90;;;1.90;;
48403;SDS011;34202;52.536;6.042;2023-05-15T21:18:02;6.10;;;2.00;;
48403;SDS011;34202;52.536;6.042;2023-05-15T21:23:02;11.00;;;2.20;;
48403;SDS011;34202;52.536;6.042;2023-05-15T21:28:03;9.50;;;2.10;;
48403;SDS011;34202;52.536;6.042;2023-05-15T21:33:03;11.90;;;2.20;;
48403;SDS011;34202;52.536;6.042;2023-05-15T21:38:04;19.30;;;3.10;;
48403;SDS011;34202;52.536;6.042;2023-05-15T21:43:04;17.30;;;3.90;;
48403;SDS011;34202;52.536;6.042;2023-05-15T21:48:04;9.20;;;1.70;;
48403;SDS011;34202;52.536;6.042;2023-05-15T21:53:05;11.60;;;2.60;;
48403;SDS011;34202;52.536;6.042;2023-05-15T21:58:05;12.00;;;2.40;;
48403;SDS011;34202;52.536;6.042;2023-05-15T22:03:06;13.30;;;3.50;;
48403;SDS011;34202;52.536;6.042;2023-05-15T22:08:06;7.00;;;2.00;;
48403;SDS011;34202;52.536;6.042;2023-05-15T22:13:06;9.10;;;3.50;;
48403;SDS011;34202;52.536;6.042;2023-05-15T22:18:08;17.90;;;3.20;;
48403;SDS011;34202;52.536;6.042;2023-05-15T22:23:08;8.50;;;2.90;;
48403;SDS011;34202;52.536;6.042;2023-05-15T22:28:09;14.00;;;3.20;;
48403;SDS011;34202;52.536;6.042;2023-05-15T22:33:09;16.20;;;2.80;;
48403;SDS011;34202;52.536;6.042;2023-05-15T22:38:10;11.20;;;2.80;;
48403;SDS011;34202;52.536;6.042;2023-05-15T22:43:10;15.30;;;4.00;;
48403;SDS011;34202;52.536;6.042;2023-05-15T22:48:10;12.90;;;2.60;;
48403;SDS011;34202;52.536;6.042;2023-05-15T22:53:11;17.80;;;2.10;;
48403;SDS011;34202;52.536;6.042;2023-05-15T22:58:11;8.30;;;2.10;;
48403;SDS011;34202;52.536;6.042;2023-05-15T23:03:11;18.80;;;3.00;;
48403;SDS011;34202;52.536;6.042;2023-05-15T23:08:12;17.90;;;2.80;;
48403;SDS011;34202;52.536;6.042;2023-05-15T23:13:12;19.80;;;3.10;;
48403;SDS011;34202;52.536;6.042;2023-05-15T23:18:12;15.00;;;3.10;;
48403;SDS011;34202;52.536;6.042;2023-05-15T23:23:13;10.80;;;3.60;;
48403;SDS011;34202;52.536;6.042;2023-05-15T23:28:14;10.60;;;2.50;;
48403;SDS011;34202;52.536;6.042;2023-05-15T23:33:14;13.60;;;3.00;;
48403;SDS011;34202;52.536;6.042;2023-05-15T23:38:15;8.20;;;2.10;;
48403;SDS011;34202;52.536;6.042;2023-05-15T23:43:15;14.30;;;4.30;;
48403;SDS011;34202;52.536;6.042;2023-05-15T23:48:16;14.60;;;2.60;;
48403;SDS011;34202;52.536;6.042;2023-05-15T23:53:16;15.40;;;2.30;;
48403;SDS011;34202;52.536;6.042;2023-05-15T23:58:17;18.90;;;2.90;;
